Time;durP1;ratioP1;P1;durP2;ratioP2;P2;SDS_P1;SDS_P2;PMS_P1;PMS_P2;Temp;Humidity;BMP_temperature;BMP_pressure;BME280_temperature;BME280_humidity;BME280_pressure;Samples;Min_cycle;Max_cycle;Signal;HPM_P1;HPM_P2
2023/01/02 00:00:46;;;;;;;3.53;2.00;;;15.80;60.70;;;;;;5032214;28;20490;-78
2023/01/02 00:03:12;;;;;;;4.33;2.20;;;15.70;61.20;;;;;;5030426;28;20567;-76
2023/01/02 00:05:37;;;;;;;3.67;1.93;;;15.60;61.30;;;;;;5029972;28;20193;-74
2023/01/02 00:08:03;;;;;;;3.63;1.90;;;15.60;61.30;;;;;;5025788;28;20177;-76
2023/01/02 00:10:29;;;;;;;6.10;2.50;;;15.50;61.60;;;;;;5032131;28;20200;-76
2023/01/02 00:12:54;;;;;;;5.83;2.33;;;15.50;61.60;;;;;;5022212;28;20265;-76
2023/01/02 00:15:20;;;;;;;3.87;2.43;;;15.50;61.60;;;;;;5030878;28;20215;-74
2023/01/02 00:17:45;;;;;;;3.87;2.07;;;15.50;61.50;;;;;;5027236;28;20643;-74
2023/01/02 00:20:11;;;;;;;4.23;2.30;;;15.50;61.30;;;;;;5032101;28;20196;-74
2023/01/02 00:22:37;;;;;;;6.37;2.20;;;15.50;61.20;;;;;;5034391;28;20213;-73
2023/01/02 00:25:02;;;;;;;8.80;2.80;;;15.50;61.20;;;;;;5023643;28;20262;-75
2023/01/02 00:27:28;;;;;;;5.13;2.03;;;15.50;61.20;;;;;;5022999;28;20239;-74
2023/01/02 00:29:53;;;;;;;3.93;2.50;;;15.50;61.20;;;;;;5030602;28;20173;-76
2023/01/02 00:32:19;;;;;;;6.40;2.00;;;15.50;61.30;;;;;;5030291;28;20255;-74
2023/01/02 00:34:45;;;;;;;5.30;2.20;;;15.50;61.60;;;;;;5028841;28;20235;-74
2023/01/02 00:37:10;;;;;;;4.17;2.17;;;15.40;61.90;;;;;;5029000;28;20200;-75
2023/01/02 00:39:36;;;;;;;6.43;2.40;;;15.40;61.60;;;;;;5031635;28;20260;-75
2023/01/02 00:42:01;;;;;;;4.13;2.10;;;15.40;61.70;;;;;;5026132;28;20259;-77
2023/01/02 00:44:27;;;;;;;3.93;2.50;;;15.30;62.00;;;;;;5028389;28;20676;-76
2023/01/02 00:46:52;;;;;;;5.33;2.53;;;15.20;62.50;;;;;;5025770;28;20272;-74
2023/01/02 00:49:18;;;;;;;4.17;2.20;;;15.20;62.60;;;;;;5030808;28;20662;-75
2023/01/02 00:51:44;;;;;;;4.97;2.60;;;15.20;62.80;;;;;;5025414;28;20200;-76
2023/01/02 00:54:09;;;;;;;4.07;2.43;;;15.20;62.80;;;;;;5025715;28;20209;-74
2023/01/02 00:56:35;;;;;;;5.50;2.53;;;15.20;62.60;;;;;;5025514;28;20204;-75
2023/01/02 00:59:00;;;;;;;3.07;2.27;;;15.20;62.60;;;;;;5028518;28;20645;-75
2023/01/02 01:01:26;;;;;;;5.23;2.70;;;15.20;62.60;;;;;;5025046;28;20207;-75
2023/01/02 01:03:52;;;;;;;3.97;2.30;;;15.20;62.80;;;;;;5034604;28;20234;-76
2023/01/02 01:06:17;;;;;;;6.70;2.50;;;15.20;63.10;;;;;;5030487;28;20198;-75
2023/01/02 01:08:43;;;;;;;4.40;2.00;;;15.20;62.90;;;;;;5030444;28;20195;-74
2023/01/02 01:11:11;;;;;;;4.33;2.80;;;15.10;62.90;;;;;;5027861;28;20185;-75
2023/01/02 01:13:37;;;;;;;6.90;2.40;;;15.10;63.10;;;;;;5026686;28;20266;-74
2023/01/02 01:16:05;;;;;;;5.50;2.90;;;15.10;63.40;;;;;;5031204;28;20439;-74
2023/01/02 01:18:31;;;;;;;3.70;2.90;;;15.10;63.10;;;;;;5033017;28;20420;-74
2023/01/02 01:20:56;;;;;;;7.27;4.07;;;15.10;63.10;;;;;;5022740;28;20481;-74
2023/01/02 01:23:22;;;;;;;6.33;3.50;;;14.90;64.80;;;;;;5033664;28;20737;-74
2023/01/02 01:25:48;;;;;;;6.90;4.03;;;14.70;65.80;;;;;;5028579;28;20223;-74
2023/01/02 01:28:14;;;;;;;7.77;4.30;;;14.60;66.60;;;;;;5031792;28;20185;-74
2023/01/02 01:30:39;;;;;;;9.10;4.60;;;14.50;67.20;;;;;;5030704;28;20429;-74
2023/01/02 01:33:05;;;;;;;7.60;4.20;;;14.40;67.70;;;;;;5031787;28;20196;-74
2023/01/02 01:35:32;;;;;;;7.17;4.73;;;14.20;68.60;;;;;;5027077;28;20212;-75
2023/01/02 01:37:58;;;;;;;12.20;4.60;;;14.10;69.10;;;;;;5029796;28;20193;-75
2023/01/02 01:40:23;;;;;;;8.43;5.07;;;14.00;69.40;;;;;;5030400;28;20981;-74
2023/01/02 01:42:49;;;;;;;9.37;5.00;;;13.90;69.80;;;;;;5032806;28;20209;-76
2023/01/02 01:45:15;;;;;;;9.10;4.60;;;13.80;70.10;;;;;;5031718;28;20213;-75
2023/01/02 01:47:55;;;;;;;9.33;4.40;;;13.70;70.50;;;;;;5032420;28;20611;-73
2023/01/02 01:50:31;;;;;;;9.00;5.03;;;13.70;70.50;;;;;;5034619;28;20428;-74
2023/01/02 01:53:10;;;;;;;11.47;5.50;;;13.60;70.70;;;;;;5033718;28;20428;-74
2023/01/02 01:55:44;;;;;;;12.43;5.67;;;13.60;70.70;;;;;;5026054;28;20468;-76
2023/01/02 01:58:32;;;;;;;9.57;5.40;;;13.50;70.70;;;;;;5024581;28;20593;-75
2023/01/02 02:00:58;;;;;;;8.70;4.87;;;13.40;70.80;;;;;;5024034;28;21018;-75
2023/01/02 02:03:27;;;;;;;6.80;4.20;;;13.40;71.10;;;;;;5028075;28;20499;-76
2023/01/02 02:05:53;;;;;;;8.07;5.40;;;13.30;71.40;;;;;;5032740;28;20216;-74
2023/01/02 02:08:46;;;;;;;9.00;4.80;;;13.30;71.40;;;;;;5028274;28;20433;-74
2023/01/02 02:11:13;;;;;;;9.90;5.20;;;13.40;71.60;;;;;;5033933;28;20825;-74
2023/01/02 02:13:39;;;;;;;10.90;5.10;;;13.30;71.60;;;;;;5019378;28;20493;-75
2023/01/02 02:16:17;;;;;;;9.77;4.87;;;13.30;71.40;;;;;;5030988;28;20440;-74
2023/01/02 02:19:22;;;;;;;12.23;5.70;;;13.20;71.60;;;;;;5024739;28;20431;-74
2023/01/02 02:22:10;;;;;;;9.00;5.60;;;13.20;71.70;;;;;;5009190;28;20484;-75
2023/01/02 02:24:35;;;;;;;12.47;5.27;;;13.10;71.80;;;;;;5008417;28;20576;-73
2023/01/02 02:27:12;;;;;;;8.90;4.93;;;13.20;71.80;;;;;;5009508;28;20967;-74
2023/01/02 02:30:03;;;;;;;10.97;5.20;;;13.10;72.10;;;;;;5005514;28;20192;-75
2023/01/02 02:32:33;;;;;;;7.87;5.10;;;13.10;72.30;;;;;;5009955;28;20520;-73
2023/01/02 02:35:17;;;;;;;10.63;4.80;;;13.00;72.60;;;;;;5008385;28;21001;-74
2023/01/02 02:38:10;;;;;;;10.50;4.70;;;13.00;72.60;;;;;;5009187;28;20562;-75
2023/01/02 02:40:57;;;;;;;9.20;4.83;;;13.00;72.70;;;;;;5002834;28;20429;-75
2023/01/02 02:43:28;;;;;;;8.43;5.30;;;13.00;72.90;;;;;;5010109;28;20480;-73
2023/01/02 02:46:08;;;;;;;9.90;4.93;;;13.00;73.00;;;;;;5008483;28;20461;-75
2023/01/02 02:48:50;;;;;;;7.67;4.73;;;13.10;72.70;;;;;;5004179;28;20843;-73
2023/01/02 02:51:37;;;;;;;8.77;4.60;;;13.00;72.90;;;;;;5009978;28;20456;-75
2023/01/02 02:54:10;;;;;;;7.80;4.13;;;13.00;72.70;;;;;;5009234;28;20463;-73
2023/01/02 02:56:36;;;;;;;4.83;2.60;;;13.00;72.40;;;;;;5009339;28;21171;-74
2023/01/02 02:59:03;;;;;;;4.87;2.67;;;13.10;71.10;;;;;;5024330;28;20420;-74
2023/01/02 03:01:30;;;;;;;6.10;2.37;;;13.30;69.50;;;;;;5032016;28;20514;-75
2023/01/02 03:03:55;;;;;;;3.60;2.10;;;13.70;68.50;;;;;;5030807;28;20443;-74
2023/01/02 03:06:35;;;;;;;4.13;2.43;;;13.90;67.60;;;;;;5032530;28;20432;-73
2023/01/02 03:09:17;;;;;;;4.47;2.17;;;14.20;66.00;;;;;;5028844;28;20256;-74
2023/01/02 03:12:17;;;;;;;3.90;2.10;;;14.50;65.00;;;;;;5044947;28;20424;-76
2023/01/02 03:14:49;;;;;;;3.10;2.10;;;14.70;64.20;;;;;;5029022;28;20703;-74
2023/01/02 03:17:46;;;;;;;5.37;2.33;;;14.90;63.50;;;;;;5026121;28;20426;-74
2023/01/02 03:20:15;;;;;;;4.20;2.20;;;15.00;63.20;;;;;;5025200;28;20424;-75
2023/01/02 03:22:47;;;;;;;5.83;2.40;;;15.00;62.80;;;;;;5026024;28;20474;-74
2023/01/02 03:25:15;;;;;;;3.63;2.00;;;15.10;62.60;;;;;;5026573;28;20465;-74
2023/01/02 03:27:45;;;;;;;4.47;2.20;;;15.20;62.20;;;;;;5027245;28;20427;-73
2023/01/02 03:30:16;;;;;;;6.53;2.33;;;15.10;62.20;;;;;;5026501;28;20439;-75
2023/01/02 03:32:49;;;;;;;11.10;2.23;;;15.20;62.00;;;;;;5031344;28;20429;-77
2023/01/02 03:35:20;;;;;;;2.50;1.80;;;15.20;61.90;;;;;;5030271;28;20470;-75
2023/01/02 03:37:52;;;;;;;3.43;2.03;;;15.20;61.60;;;;;;5034373;28;20423;-74
2023/01/02 03:40:23;;;;;;;1.80;1.67;;;15.10;61.70;;;;;;5031995;28;20447;-75
2023/01/02 03:42:57;;;;;;;2.83;1.87;;;15.20;61.70;;;;;;5021283;28;20566;-73
2023/01/02 03:45:30;;;;;;;7.33;2.50;;;15.20;61.60;;;;;;5028378;28;20461;-75
2023/01/02 03:47:55;;;;;;;3.30;1.80;;;15.20;61.60;;;;;;5033748;28;20492;-73
2023/01/02 03:50:28;;;;;;;3.87;2.00;;;15.20;61.60;;;;;;5039251;28;20418;-74
2023/01/02 03:52:54;;;;;;;3.93;1.80;;;15.10;61.90;;;;;;5034570;28;20190;-75
2023/01/02 03:55:22;;;;;;;3.90;2.20;;;15.10;62.00;;;;;;5031177;28;20552;-74
2023/01/02 03:57:57;;;;;;;3.23;1.97;;;15.00;62.20;;;;;;5031926;28;20453;-73
2023/01/02 04:00:31;;;;;;;4.73;2.07;;;14.90;62.50;;;;;;5034925;28;20438;-74
2023/01/02 04:03:16;;;;;;;5.60;2.30;;;14.90;62.50;;;;;;5030009;28;20473;-75
2023/01/02 04:05:49;;;;;;;3.40;1.93;;;14.90;62.50;;;;;;5031557;28;20501;-74
2023/01/02 04:08:27;;;;;;;4.20;1.90;;;14.90;62.50;;;;;;5032928;28;20984;-75
2023/01/02 04:10:56;;;;;;;3.40;1.80;;;14.80;62.50;;;;;;5026959;28;20415;-73
2023/01/02 04:13:31;;;;;;;2.67;1.80;;;14.80;62.50;;;;;;5030444;28;20424;-74
2023/01/02 04:15:58;;;;;;;5.80;2.13;;;14.80;62.50;;;;;;5028356;28;20483;-74
2023/01/02 04:18:32;;;;;;;6.13;2.27;;;14.80;62.50;;;;;;5029398;28;20859;-75
2023/01/02 04:21:06;;;;;;;4.60;1.93;;;14.80;62.60;;;;;;5024601;28;20939;-74
2023/01/02 04:23:42;;;;;;;4.20;2.00;;;14.80;62.50;;;;;;5028973;28;20472;-73
2023/01/02 04:26:14;;;;;;;6.83;1.97;;;14.80;62.60;;;;;;5023827;28;20507;-74
2023/01/02 04:28:40;;;;;;;3.10;1.90;;;14.70;62.90;;;;;;5024701;28;20430;-75
2023/01/02 04:31:12;;;;;;;5.80;1.97;;;14.70;62.90;;;;;;5028631;28;20425;-75
2023/01/02 04:33:46;;;;;;;3.80;1.90;;;14.70;62.90;;;;;;5026979;28;20193;-73
2023/01/02 04:36:14;;;;;;;6.93;2.23;;;14.70;63.10;;;;;;5034467;28;20565;-74
2023/01/02 04:38:44;;;;;;;3.60;1.80;;;14.70;62.90;;;;;;5033749;28;20431;-74
2023/01/02 04:41:13;;;;;;;2.60;1.70;;;14.70;62.90;;;;;;5029536;28;20427;-76
2023/01/02 04:43:39;;;;;;;5.20;2.30;;;14.70;62.90;;;;;;5033770;28;20430;-75
2023/01/02 04:46:05;;;;;;;3.60;1.77;;;14.60;63.10;;;;;;5032358;28;20449;-75
2023/01/02 04:48:30;;;;;;;3.40;1.60;;;14.70;63.10;;;;;;5032070;28;20676;-74
2023/01/02 04:50:56;;;;;;;4.37;1.97;;;14.70;62.90;;;;;;5034438;28;20187;-75
2023/01/02 04:53:21;;;;;;;3.47;1.80;;;14.60;62.90;;;;;;5035159;28;20199;-75
2023/01/02 04:55:47;;;;;;;3.23;2.20;;;14.60;62.90;;;;;;5033084;28;20204;-75
2023/01/02 04:58:13;;;;;;;2.87;1.63;;;14.60;63.10;;;;;;5031724;28;20837;-74
2023/01/02 05:00:38;;;;;;;7.97;2.20;;;14.60;63.10;;;;;;5029697;28;20188;-74
2023/01/02 05:03:04;;;;;;;5.10;2.20;;;14.70;63.10;;;;;;5027808;28;20213;-74
2023/01/02 05:05:30;;;;;;;4.23;2.20;;;14.60;63.20;;;;;;5033239;28;20227;-74
2023/01/02 05:07:59;;;;;;;4.13;2.00;;;14.60;63.20;;;;;;5029631;28;20249;-76
2023/01/02 05:10:24;;;;;;;4.13;1.80;;;14.60;63.40;;;;;;5033706;28;20430;-75
2023/01/02 05:12:50;;;;;;;6.57;2.27;;;14.50;63.40;;;;;;5024390;28;20431;-73
2023/01/02 05:15:15;;;;;;;3.90;1.97;;;14.50;63.40;;;;;;5030723;28;20221;-74
2023/01/02 05:17:41;;;;;;;5.33;2.00;;;14.40;63.80;;;;;;5027569;28;20677;-73
2023/01/02 05:20:09;;;;;;;5.87;2.00;;;14.40;63.80;;;;;;5033830;28;20175;-73
2023/01/02 05:25:26;;;;;;;4.07;1.80;;;14.40;63.90;;;;;;5027074;28;20493;-73
2023/01/02 05:27:53;;;;;;;4.50;2.40;;;14.30;63.80;;;;;;5028351;28;20422;-74
2023/01/02 05:30:19;;;;;;;5.80;2.00;;;14.30;63.70;;;;;;5032332;28;20414;-74
2023/01/02 05:32:45;;;;;;;4.07;2.33;;;14.30;63.70;;;;;;5032181;28;20417;-74
2023/01/02 05:35:10;;;;;;;7.13;2.97;;;14.30;63.40;;;;;;5022871;28;20484;-74
2023/01/02 05:37:36;;;;;;;5.33;2.07;;;14.30;63.40;;;;;;5032662;28;20215;-75
2023/01/02 05:40:01;;;;;;;3.80;1.90;;;14.30;63.10;;;;;;5030741;28;20184;-77
2023/01/02 05:42:27;;;;;;;4.30;2.03;;;14.40;63.10;;;;;;5031005;28;20297;-73
2023/01/02 05:44:52;;;;;;;4.30;2.30;;;14.40;62.50;;;;;;5028724;28;20217;-73
2023/01/02 05:47:18;;;;;;;5.10;2.00;;;14.40;62.60;;;;;;5023670;28;20194;-74
2023/01/02 05:49:44;;;;;;;3.70;2.17;;;14.40;62.50;;;;;;5027739;28;20196;-73
2023/01/02 05:52:09;;;;;;;7.00;2.10;;;14.40;62.30;;;;;;5032644;28;20277;-75
2023/01/02 05:54:35;;;;;;;5.73;2.27;;;14.40;62.00;;;;;;5026578;28;20306;-74
2023/01/02 05:57:00;;;;;;;14.83;2.53;;;14.50;61.50;;;;;;5033434;28;20195;-73
2023/01/02 05:59:26;;;;;;;2.73;1.70;;;14.50;61.20;;;;;;5027484;28;20185;-75
2023/01/02 06:01:51;;;;;;;4.30;2.10;;;14.50;60.90;;;;;;5034724;28;20211;-75
2023/01/02 06:04:17;;;;;;;4.07;2.10;;;14.50;60.90;;;;;;5033252;28;20299;-74
2023/01/02 06:06:43;;;;;;;4.67;2.10;;;14.60;60.70;;;;;;5028607;28;20562;-74
2023/01/02 06:09:12;;;;;;;6.40;2.67;;;14.60;60.70;;;;;;5026935;28;20678;-75
2023/01/02 06:11:38;;;;;;;4.40;2.50;;;14.60;61.00;;;;;;5028382;28;20268;-75
2023/01/02 06:14:03;;;;;;;7.33;2.23;;;14.60;60.90;;;;;;5025025;28;20557;-75
2023/01/02 06:16:29;;;;;;;10.50;2.33;;;14.70;60.60;;;;;;5037077;28;20195;-75
2023/01/02 06:18:55;;;;;;;7.00;2.60;;;14.70;60.30;;;;;;5036305;28;20188;-75
2023/01/02 06:21:21;;;;;;;3.77;1.70;;;14.70;60.30;;;;;;5026904;28;20280;-75
2023/01/02 06:23:47;;;;;;;8.33;2.30;;;14.70;60.30;;;;;;5028136;28;20644;-74
2023/01/02 06:26:16;;;;;;;4.20;2.20;;;14.80;60.30;;;;;;5030646;28;20435;-75
2023/01/02 06:28:42;;;;;;;4.40;2.20;;;14.80;60.10;;;;;;5034271;28;20439;-76
2023/01/02 06:31:13;;;;;;;3.97;2.10;;;14.70;60.00;;;;;;5040086;28;20416;-74
2023/01/02 06:33:39;;;;;;;6.63;2.00;;;14.70;60.00;;;;;;5036752;28;20414;-73
2023/01/02 06:36:14;;;;;;;4.63;3.10;;;14.80;59.70;;;;;;5038226;28;20426;-74
2023/01/02 06:38:40;;;;;;;4.10;2.10;;;14.80;59.60;;;;;;5034489;28;20242;-73
2023/01/02 06:41:07;;;;;;;4.20;2.30;;;14.80;59.60;;;;;;5031294;28;20465;-75
2023/01/02 06:43:35;;;;;;;3.80;2.10;;;14.80;59.30;;;;;;5032515;28;20468;-73
2023/01/02 06:46:03;;;;;;;7.90;2.67;;;14.80;59.30;;;;;;5024006;28;20462;-74
2023/01/02 06:48:30;;;;;;;6.77;2.50;;;14.80;59.50;;;;;;5025742;28;20415;-76
2023/01/02 06:50:58;;;;;;;6.70;2.40;;;14.80;59.20;;;;;;5036409;28;20420;-74
2023/01/02 06:53:24;;;;;;;7.90;2.60;;;14.80;59.50;;;;;;5038345;28;20484;-74
2023/01/02 06:55:57;;;;;;;9.07;2.57;;;14.80;59.30;;;;;;5039806;28;20460;-73
2023/01/02 06:58:24;;;;;;;10.27;4.20;;;14.80;59.30;;;;;;5041918;28;20438;-75
2023/01/02 07:00:51;;;;;;;2.97;2.10;;;14.80;59.50;;;;;;5042990;28;20429;-74
2023/01/02 07:03:17;;;;;;;5.43;2.43;;;14.80;59.60;;;;;;5029561;28;20495;-75
2023/01/02 07:05:44;;;;;;;4.40;2.27;;;14.80;59.70;;;;;;5028314;28;20570;-74
2023/01/02 07:08:10;;;;;;;9.87;3.03;;;14.70;60.30;;;;;;5033361;28;20407;-76
2023/01/02 07:10:36;;;;;;;7.20;2.70;;;14.60;60.60;;;;;;5031594;28;20428;-75
2023/01/02 07:13:01;;;;;;;7.03;2.37;;;14.60;60.00;;;;;;5030633;28;20801;-73
2023/01/02 07:15:27;;;;;;;5.50;2.50;;;14.60;59.70;;;;;;5029269;28;20211;-74
2023/01/02 07:17:54;;;;;;;5.97;2.30;;;14.60;59.30;;;;;;5029183;28;20512;-76
2023/01/02 07:20:19;;;;;;;8.50;2.80;;;14.70;59.10;;;;;;5029734;28;20182;-73
2023/01/02 07:22:52;;;;;;;5.23;2.40;;;14.70;58.90;;;;;;5028213;28;20454;-75
2023/01/02 07:25:21;;;;;;;4.37;2.30;;;14.80;58.50;;;;;;5032468;28;20263;-74
2023/01/02 07:27:47;;;;;;;7.33;2.80;;;14.80;58.50;;;;;;5031905;28;20410;-74
2023/01/02 07:30:13;;;;;;;8.27;3.00;;;14.80;59.50;;;;;;5031338;28;20414;-74
2023/01/02 07:32:39;;;;;;;5.33;3.50;;;14.80;59.70;;;;;;5028238;28;20450;-74
2023/01/02 07:35:06;;;;;;;3.90;2.77;;;14.60;59.70;;;;;;5021474;28;21553;-75
2023/01/02 07:37:31;;;;;;;8.80;2.30;;;14.50;60.30;;;;;;5024105;28;20656;-74
2023/01/02 07:39:57;;;;;;;4.80;2.67;;;14.40;60.70;;;;;;5027569;28;20509;-74
2023/01/02 07:42:22;;;;;;;6.93;2.33;;;14.40;60.60;;;;;;5025178;28;20264;-74
2023/01/02 07:44:48;;;;;;;5.87;2.80;;;14.40;60.60;;;;;;5030572;28;20240;-75
2023/01/02 07:47:13;;;;;;;3.40;2.33;;;14.50;59.90;;;;;;5025234;28;20174;-76
2023/01/02 07:49:39;;;;;;;4.97;3.00;;;14.50;59.70;;;;;;5031749;28;20647;-74
2023/01/02 07:52:08;;;;;;;9.43;2.53;;;14.50;59.90;;;;;;5027405;28;20597;-74
2023/01/02 07:54:34;;;;;;;5.77;2.60;;;14.60;59.90;;;;;;5022737;28;20266;-74
2023/01/02 07:57:00;;;;;;;9.50;2.73;;;14.60;59.90;;;;;;5029140;28;20450;-73
2023/01/02 07:59:26;;;;;;;6.23;2.30;;;14.60;60.10;;;;;;5030225;28;20222;-75
2023/01/02 08:01:51;;;;;;;9.93;2.70;;;14.60;59.90;;;;;;5032160;28;20206;-74
2023/01/02 08:04:17;;;;;;;9.20;3.10;;;14.60;60.30;;;;;;5029088;28;20664;-74
2023/01/02 08:06:42;;;;;;;9.07;3.33;;;14.60;59.70;;;;;;5025501;28;20177;-74
2023/01/02 08:09:08;;;;;;;6.60;3.20;;;14.70;60.30;;;;;;5028382;28;20176;-75
2023/01/02 08:11:34;;;;;;;10.87;4.10;;;14.70;62.20;;;;;;5030615;28;20223;-74
2023/01/02 08:13:59;;;;;;;8.90;4.77;;;14.60;63.10;;;;;;5033740;28;20214;-73
2023/01/02 08:16:25;;;;;;;8.33;4.60;;;14.40;64.20;;;;;;5029367;28;20182;-74
2023/01/02 08:18:54;;;;;;;5.13;3.13;;;14.30;64.70;;;;;;5033261;28;20376;-74
2023/01/02 08:21:21;;;;;;;5.30;2.77;;;14.20;63.80;;;;;;5033594;28;20179;-75
2023/01/02 08:23:46;;;;;;;5.87;3.43;;;14.10;63.70;;;;;;5032732;28;20586;-73
2023/01/02 08:26:12;;;;;;;5.40;3.03;;;14.10;63.50;;;;;;5034589;28;20428;-75
2023/01/02 08:28:39;;;;;;;8.37;3.40;;;14.00;63.70;;;;;;5033040;28;20183;-74
2023/01/02 08:31:20;;;;;;;7.13;3.43;;;14.10;63.70;;;;;;5034522;28;20571;-74
2023/01/02 08:33:46;;;;;;;8.90;3.03;;;14.00;63.90;;;;;;5025556;28;20421;-76
2023/01/02 08:36:13;;;;;;;6.37;2.50;;;14.00;63.90;;;;;;5029559;28;20432;-75
2023/01/02 08:38:39;;;;;;;10.07;2.93;;;14.10;63.80;;;;;;5029695;28;20201;-75
2023/01/02 08:41:04;;;;;;;7.73;3.30;;;14.10;63.70;;;;;;5030402;28;21006;-74
2023/01/02 08:43:33;;;;;;;6.70;3.00;;;14.10;63.80;;;;;;5027010;28;20210;-76
2023/01/02 08:46:04;;;;;;;4.50;2.50;;;14.20;63.70;;;;;;5028042;28;20202;-76
2023/01/02 08:48:30;;;;;;;7.00;2.63;;;14.20;63.50;;;;;;5030861;28;20935;-75
2023/01/02 08:50:56;;;;;;;11.23;3.10;;;14.20;63.50;;;;;;5032147;28;20420;-75
2023/01/02 08:53:21;;;;;;;4.67;3.03;;;14.30;63.40;;;;;;5035805;28;20197;-75
2023/01/02 08:55:47;;;;;;;11.70;3.93;;;14.30;63.20;;;;;;5032061;28;20210;-75
2023/01/02 08:58:12;;;;;;;5.43;2.87;;;14.30;62.90;;;;;;5029560;28;20236;-75
2023/01/02 09:00:38;;;;;;;9.67;3.90;;;14.30;62.90;;;;;;5024445;28;20190;-75
2023/01/02 09:03:04;;;;;;;5.83;2.97;;;14.30;62.80;;;;;;5029804;28;20199;-75
2023/01/02 09:05:30;;;;;;;7.87;2.80;;;14.40;62.60;;;;;;5028692;28;20462;-74
2023/01/02 09:07:56;;;;;;;7.40;3.00;;;14.40;62.20;;;;;;5027086;28;20177;-75
2023/01/02 09:10:22;;;;;;;8.27;3.30;;;14.40;62.00;;;;;;5032636;28;20497;-75
2023/01/02 09:12:48;;;;;;;6.90;2.73;;;14.50;61.90;;;;;;5027569;28;21078;-75
2023/01/02 09:15:13;;;;;;;7.07;3.37;;;14.50;61.60;;;;;;5029172;28;20625;-76
2023/01/02 09:17:39;;;;;;;8.70;2.97;;;14.60;61.20;;;;;;5029802;28;20200;-75
2023/01/02 09:20:05;;;;;;;7.67;2.87;;;14.70;60.70;;;;;;5028404;28;20736;-75
2023/01/02 09:22:30;;;;;;;6.97;3.13;;;14.70;60.60;;;;;;5028758;28;20246;-76
2023/01/02 09:24:56;;;;;;;8.00;2.80;;;14.70;60.10;;;;;;5028107;28;20981;-75
2023/01/02 09:27:21;;;;;;;4.13;2.73;;;14.80;60.00;;;;;;5028843;28;20184;-76
2023/01/02 09:29:47;;;;;;;6.57;3.80;;;14.80;59.50;;;;;;5030462;28;20700;-76
2023/01/02 09:32:12;;;;;;;8.03;2.90;;;14.70;59.30;;;;;;5026666;28;21005;-76
2023/01/02 09:34:38;;;;;;;6.33;3.10;;;14.80;58.40;;;;;;5025018;28;20207;-75
2023/01/02 09:37:04;;;;;;;8.53;2.73;;;14.90;57.40;;;;;;5025590;28;20207;-76
2023/01/02 09:39:29;;;;;;;11.60;3.27;;;15.00;56.80;;;;;;5030607;28;20321;-74
2023/01/02 09:41:58;;;;;;;6.07;3.37;;;15.10;56.80;;;;;;5031594;28;20699;-74
2023/01/02 09:44:52;;;;;;;7.30;3.80;;;15.10;56.80;;;;;;5029234;28;20217;-75
2023/01/02 09:47:25;;;;;;;6.33;2.90;;;15.20;56.80;;;;;;5000626;28;21351;-74
2023/01/02 09:49:56;;;;;;;5.70;2.70;;;15.20;56.20;;;;;;5009275;28;20934;-74
2023/01/02 09:52:29;;;;;;;5.80;2.37;;;15.30;56.00;;;;;;5008388;28;20479;-74
2023/01/02 09:54:55;;;;;;;6.13;2.60;;;15.30;56.10;;;;;;5009833;28;20468;-74
2023/01/02 09:57:35;;;;;;;5.77;2.70;;;15.30;56.10;;;;;;5008360;28;20502;-75
2023/01/02 10:00:20;;;;;;;7.40;3.27;;;15.30;55.80;;;;;;5008344;28;20424;-72
2023/01/02 10:02:57;;;;;;;7.63;3.07;;;15.40;55.20;;;;;;5003325;28;20481;-74
2023/01/02 10:05:47;;;;;;;6.73;2.80;;;15.50;54.60;;;;;;5006329;28;20456;-73
2023/01/02 10:08:50;;;;;;;10.87;2.80;;;15.60;54.80;;;;;;5004337;28;20427;-74
2023/01/02 10:11:34;;;;;;;8.33;2.73;;;15.70;54.10;;;;;;4978137;28;20452;-75
2023/01/02 10:14:05;;;;;;;11.10;3.00;;;15.70;54.10;;;;;;5004266;28;20480;-74
2023/01/02 10:16:36;;;;;;;11.17;3.17;;;15.80;54.00;;;;;;5009274;28;20431;-74
2023/01/02 10:19:06;;;;;;;7.50;2.73;;;15.80;53.80;;;;;;5009637;28;20417;-75
2023/01/02 10:21:36;;;;;;;9.20;3.40;;;15.90;52.80;;;;;;5003174;28;20426;-74
2023/01/02 10:24:06;;;;;;;6.73;2.70;;;15.90;53.30;;;;;;5014852;28;20456;-74
2023/01/02 10:26:36;;;;;;;8.33;2.80;;;15.90;53.60;;;;;;5027846;28;21080;-76
2023/01/02 10:29:28;;;;;;;7.30;3.07;;;15.90;53.30;;;;;;5022236;28;20461;-77
2023/01/02 10:32:09;;;;;;;9.30;3.17;;;16.00;52.90;;;;;;5027104;28;20443;-74
2023/01/02 10:34:47;;;;;;;6.40;2.87;;;16.00;52.90;;;;;;5025984;28;20466;-74
2023/01/02 10:37:14;;;;;;;8.97;2.63;;;16.00;52.40;;;;;;5024551;28;21226;-74
2023/01/02 10:39:45;;;;;;;8.77;2.80;;;16.10;51.40;;;;;;5031344;28;20518;-74
2023/01/02 10:42:13;;;;;;;4.10;2.60;;;16.20;51.30;;;;;;5029925;28;20467;-73
2023/01/02 10:44:40;;;;;;;12.73;2.70;;;16.30;51.00;;;;;;5028547;28;20545;-74
2023/01/02 10:47:19;;;;;;;5.60;2.73;;;16.30;50.30;;;;;;5031222;28;20525;-76
2023/01/02 10:49:46;;;;;;;10.37;2.80;;;16.40;50.50;;;;;;5028408;28;20512;-72
2023/01/02 10:52:18;;;;;;;8.57;2.80;;;16.40;50.20;;;;;;5025186;28;20420;-73
2023/01/02 10:54:52;;;;;;;8.30;2.53;;;16.50;49.90;;;;;;5023308;28;20461;-76
2023/01/02 10:57:25;;;;;;;7.87;2.67;;;16.70;49.10;;;;;;5029795;28;20538;-74
2023/01/02 10:59:58;;;;;;;12.20;3.23;;;16.80;48.70;;;;;;5031917;28;20426;-75
2023/01/02 11:02:28;;;;;;;8.43;2.53;;;16.90;48.30;;;;;;5032388;28;20468;-76
2023/01/02 11:04:59;;;;;;;6.13;3.23;;;17.00;48.30;;;;;;5030579;28;20486;-75
2023/01/02 11:07:25;;;;;;;10.60;3.40;;;17.10;48.50;;;;;;5030839;28;20423;-74
2023/01/02 11:09:55;;;;;;;5.83;2.80;;;17.20;48.30;;;;;;5034085;28;20420;-74
2023/01/02 11:12:22;;;;;;;7.33;3.00;;;17.10;47.90;;;;;;5031173;28;20432;-75
2023/01/02 11:14:47;;;;;;;5.50;3.20;;;17.20;47.90;;;;;;5032172;28;20464;-75
2023/01/02 11:17:21;;;;;;;7.43;2.73;;;17.20;47.90;;;;;;5037069;28;20468;-74
2023/01/02 11:19:53;;;;;;;7.30;3.23;;;17.10;48.10;;;;;;5027884;28;20193;-74
2023/01/02 11:22:21;;;;;;;6.47;2.60;;;17.20;48.10;;;;;;5030771;28;20513;-75
2023/01/02 11:25:02;;;;;;;9.00;2.50;;;17.20;47.80;;;;;;5025601;28;20517;-73
2023/01/02 11:27:33;;;;;;;5.97;3.03;;;17.40;47.90;;;;;;5025449;28;20436;-75
2023/01/02 11:29:59;;;;;;;9.57;2.90;;;17.40;48.10;;;;;;5029757;28;20417;-74
2023/01/02 11:32:34;;;;;;;7.50;2.93;;;17.50;47.50;;;;;;5016856;28;20688;-74
2023/01/02 11:35:01;;;;;;;13.10;3.40;;;17.60;47.30;;;;;;5028185;28;20543;-74
2023/01/02 11:37:27;;;;;;;7.40;2.83;;;17.60;47.30;;;;;;5025629;28;20906;-75
2023/01/02 11:39:58;;;;;;;7.07;2.80;;;17.50;47.40;;;;;;5031464;28;20424;-75
2023/01/02 11:45:37;;;;;;;15.20;3.17;;;17.50;47.10;;;;;;5018901;28;20464;-75
2023/01/02 11:48:25;;;;;;;7.50;2.77;;;17.70;47.00;;;;;;5028464;28;20427;-73
2023/01/02 11:50:51;;;;;;;8.67;2.83;;;17.60;46.90;;;;;;5024007;28;20200;-75
2023/01/02 11:53:25;;;;;;;6.60;2.90;;;17.70;46.60;;;;;;5021610;28;20435;-75
2023/01/02 11:56:27;;;;;;;12.50;3.20;;;17.60;46.50;;;;;;5023379;28;20460;-74
2023/01/02 11:59:14;;;;;;;5.70;2.80;;;17.60;46.60;;;;;;5023132;28;20446;-75
2023/01/02 12:02:16;;;;;;;10.40;3.23;;;17.60;46.70;;;;;;5027021;28;20433;-74
2023/01/02 12:04:42;;;;;;;8.30;3.00;;;17.60;47.10;;;;;;5026339;28;20451;-74
2023/01/02 12:07:51;;;;;;;9.00;3.07;;;17.60;47.40;;;;;;5027622;28;20771;-73
2023/01/02 12:10:38;;;;;;;10.17;3.30;;;17.60;47.40;;;;;;5028299;28;20501;-74
2023/01/02 12:13:25;;;;;;;11.77;2.50;;;17.60;47.50;;;;;;5026978;28;20426;-73
2023/01/02 12:16:05;;;;;;;12.40;3.57;;;17.50;47.80;;;;;;5026942;28;20459;-74
2023/01/02 12:18:46;;;;;;;12.60;3.07;;;17.50;47.90;;;;;;5027138;28;20452;-74
2023/01/02 12:21:20;;;;;;;8.60;2.77;;;17.50;48.20;;;;;;5026321;28;20412;-73
2023/01/02 12:23:57;;;;;;;7.47;2.63;;;17.50;48.20;;;;;;5029242;28;20557;-77
2023/01/02 12:26:37;;;;;;;8.90;2.70;;;17.60;48.20;;;;;;5019273;28;20476;-77
2023/01/02 12:29:10;;;;;;;8.87;2.80;;;17.60;48.30;;;;;;5030739;28;20458;-74
2023/01/02 12:31:42;;;;;;;8.30;3.17;;;17.60;48.50;;;;;;5031140;28;20916;-76
2023/01/02 12:34:32;;;;;;;13.70;3.10;;;17.60;48.60;;;;;;5022224;28;20481;-75
2023/01/02 12:37:33;;;;;;;6.83;2.83;;;17.50;48.70;;;;;;5021295;28;20868;-74
2023/01/02 12:40:05;;;;;;;10.60;3.47;;;17.40;49.00;;;;;;5025492;28;20417;-74
2023/01/02 12:42:57;;;;;;;8.60;2.67;;;17.30;49.30;;;;;;5029463;28;20548;-73
2023/01/02 12:45:33;;;;;;;13.70;3.57;;;17.40;49.80;;;;;;5027349;28;20525;-74
2023/01/02 12:48:17;;;;;;;10.43;3.70;;;17.40;49.90;;;;;;5026923;28;20473;-75
2023/01/02 12:51:01;;;;;;;14.23;3.47;;;17.40;49.70;;;;;;5028819;28;20447;-74
2023/01/02 12:53:52;;;;;;;12.27;3.47;;;17.50;49.70;;;;;;5026415;28;20437;-75
2023/01/02 12:56:41;;;;;;;10.60;2.50;;;17.60;49.70;;;;;;5023444;28;20975;-75
2023/01/02 12:59:33;;;;;;;7.70;2.67;;;17.70;49.40;;;;;;5023614;28;20431;-75
2023/01/02 13:02:25;;;;;;;11.20;2.93;;;17.80;49.10;;;;;;5027762;28;20465;-73
2023/01/02 13:04:55;;;;;;;7.67;3.03;;;17.90;48.90;;;;;;5025586;28;20459;-75
2023/01/02 13:07:33;;;;;;;6.73;3.00;;;18.00;48.70;;;;;;5030919;28;20448;-74
2023/01/02 13:10:02;;;;;;;13.10;3.20;;;18.00;48.60;;;;;;5031345;28;20417;-75